sensor_id;sensor_type;location;lat;lon;timestamp;temperature;humidity
49042;DHT22;34859;51.608;11.462;2023-09-07T00:01:42;14.60;99.90
49042;DHT22;34859;51.608;11.462;2023-09-07T00:04:28;14.60;99.90
49042;DHT22;34859;51.608;11.462;2023-09-07T00:07:14;14.70;99.90
49042;DHT22;34859;51.608;11.462;2023-09-07T00:09:59;14.70;99.90
49042;DHT22;34859;51.608;11.462;2023-09-07T00:12:45;14.50;99.90
49042;DHT22;34859;51.608;11.462;2023-09-07T00:15:37;14.50;99.90
49042;DHT22;34859;51.608;11.462;2023-09-07T00:18:22;14.40;99.90
49042;DHT22;34859;51.608;11.462;2023-09-07T00:21:08;14.40;99.90
49042;DHT22;34859;51.608;11.462;2023-09-07T00:23:54;14.40;99.90
49042;DHT22;34859;51.608;11.462;2023-09-07T00:26:40;14.40;99.90
49042;DHT22;34859;51.608;11.462;2023-09-07T00:29:26;14.40;99.90
49042;DHT22;34859;51.608;11.462;2023-09-07T00:32:12;14.30;99.90
49042;DHT22;34859;51.608;11.462;2023-09-07T00:34:58;14.30;99.90
49042;DHT22;34859;51.608;11.462;2023-09-07T00:37:43;14.30;99.90
49042;DHT22;34859;51.608;11.462;2023-09-07T00:40:30;14.30;99.90
49042;DHT22;34859;51.608;11.462;2023-09-07T00:43:15;14.30;99.90
49042;DHT22;34859;51.608;11.462;2023-09-07T00:46:01;14.20;99.90
49042;DHT22;34859;51.608;11.462;2023-09-07T00:48:48;14.20;99.90
49042;DHT22;34859;51.608;11.462;2023-09-07T00:51:34;14.10;99.90
49042;DHT22;34859;51.608;11.462;2023-09-07T00:54:20;14.10;99.90
49042;DHT22;34859;51.608;11.462;2023-09-07T00:57:06;14.20;99.90
49042;DHT22;34859;51.608;11.462;2023-09-07T00:59:52;14.20;99.90
49042;DHT22;34859;51.608;11.462;2023-09-07T01:02:38;14.10;99.90
49042;DHT22;34859;51.608;11.462;2023-09-07T01:05:30;14.10;99.90
49042;DHT22;34859;51.608;11.462;2023-09-07T01:08:25;14.20;99.90
49042;DHT22;34859;51.608;11.462;2023-09-07T01:11:19;14.10;99.90
49042;DHT22;34859;51.608;11.462;2023-09-07T01:14:11;14.00;99.90
49042;DHT22;34859;51.608;11.462;2023-09-07T01:16:57;14.00;99.90
49042;DHT22;34859;51.608;11.462;2023-09-07T01:19:44;14.00;99.90
49042;DHT22;34859;51.608;11.462;2023-09-07T01:22:31;14.00;99.90
49042;DHT22;34859;51.608;11.462;2023-09-07T01:25:17;14.00;99.90
49042;DHT22;34859;51.608;11.462;2023-09-07T01:28:03;13.90;99.90
49042;DHT22;34859;51.608;11.462;2023-09-07T01:30:51;13.80;99.90
49042;DHT22;34859;51.608;11.462;2023-09-07T01:33:37;13.80;99.90
49042;DHT22;34859;51.608;11.462;2023-09-07T01:36:23;13.90;99.90
49042;DHT22;34859;51.608;11.462;2023-09-07T01:39:09;13.80;99.90
49042;DHT22;34859;51.608;11.462;2023-09-07T01:41:54;13.80;99.90
49042;DHT22;34859;51.608;11.462;2023-09-07T01:44:40;13.70;99.90
49042;DHT22;34859;51.608;11.462;2023-09-07T01:47:26;13.70;99.90
49042;DHT22;34859;51.608;11.462;2023-09-07T01:50:11;13.70;99.90
49042;DHT22;34859;51.608;11.462;2023-09-07T01:52:59;13.70;99.90
49042;DHT22;34859;51.608;11.462;2023-09-07T01:55:45;13.70;99.90
49042;DHT22;34859;51.608;11.462;2023-09-07T01:58:31;13.70;99.90
49042;DHT22;34859;51.608;11.462;2023-09-07T02:01:23;13.70;99.90
49042;DHT22;34859;51.608;11.462;2023-09-07T02:04:09;13.70;99.90
49042;DHT22;34859;51.608;11.462;2023-09-07T02:06:54;13.80;99.90
49042;DHT22;34859;51.608;11.462;2023-09-07T02:09:41;13.70;99.90
49042;DHT22;34859;51.608;11.462;2023-09-07T02:12:27;13.60;99.90
49042;DHT22;34859;51.608;11.462;2023-09-07T02:15:13;13.60;99.90
49042;DHT22;34859;51.608;11.462;2023-09-07T02:17:59;13.60;99.90
49042;DHT22;34859;51.608;11.462;2023-09-07T02:20:44;13.60;99.90
49042;DHT22;34859;51.608;11.462;2023-09-07T02:23:33;13.50;99.90
49042;DHT22;34859;51.608;11.462;2023-09-07T02:26:19;13.50;99.90
49042;DHT22;34859;51.608;11.462;2023-09-07T02:29:05;13.40;99.90
49042;DHT22;34859;51.608;11.462;2023-09-07T02:31:52;13.40;99.90
49042;DHT22;34859;51.608;11.462;2023-09-07T02:34:37;13.60;99.90
49042;DHT22;34859;51.608;11.462;2023-09-07T02:37:23;13.50;99.90
49042;DHT22;34859;51.608;11.462;2023-09-07T02:40:09;13.50;99.90
49042;DHT22;34859;51.608;11.462;2023-09-07T02:42:55;13.50;99.90
49042;DHT22;34859;51.608;11.462;2023-09-07T02:45:41;13.40;99.90
49042;DHT22;34859;51.608;11.462;2023-09-07T02:48:26;13.50;99.90
49042;DHT22;34859;51.608;11.462;2023-09-07T02:51:12;13.40;99.90
49042;DHT22;34859;51.608;11.462;2023-09-07T02:54:01;13.30;99.90
49042;DHT22;34859;51.608;11.462;2023-09-07T02:56:47;13.40;99.90
49042;DHT22;34859;51.608;11.462;2023-09-07T02:59:32;13.30;99.90
49042;DHT22;34859;51.608;11.462;2023-09-07T03:02:18;13.30;99.90
49042;DHT22;34859;51.608;11.462;2023-09-07T03:05:04;13.30;99.90
49042;DHT22;34859;51.608;11.462;2023-09-07T03:07:50;13.20;99.90
49042;DHT22;34859;51.608;11.462;2023-09-07T03:10:36;13.20;99.90
49042;DHT22;34859;51.608;11.462;2023-09-07T03:13:26;13.20;99.90
49042;DHT22;34859;51.608;11.462;2023-09-07T03:16:12;13.20;99.90
49042;DHT22;34859;51.608;11.462;2023-09-07T03:18:57;13.20;99.90
49042;DHT22;34859;51.608;11.462;2023-09-07T03:21:43;13.20;99.90
49042;DHT22;34859;51.608;11.462;2023-09-07T03:24:29;13.20;99.90
49042;DHT22;34859;51.608;11.462;2023-09-07T03:27:14;13.10;99.90
49042;DHT22;34859;51.608;11.462;2023-09-07T03:30:00;13.10;99.90
49042;DHT22;34859;51.608;11.462;2023-09-07T03:32:46;13.10;99.90
49042;DHT22;34859;51.608;11.462;2023-09-07T03:35:32;13.00;99.90
49042;DHT22;34859;51.608;11.462;2023-09-07T03:38:18;13.00;99.90
49042;DHT22;34859;51.608;11.462;2023-09-07T03:41:04;12.90;99.90
49042;DHT22;34859;51.608;11.462;2023-09-07T03:43:49;13.00;99.90
49042;DHT22;34859;51.608;11.462;2023-09-07T03:46:35;13.00;99.90
49042;DHT22;34859;51.608;11.462;2023-09-07T03:49:21;13.00;99.90
49042;DHT22;34859;51.608;11.462;2023-09-07T03:52:07;13.00;99.90
49042;DHT22;34859;51.608;11.462;2023-09-07T03:54:56;13.00;99.90
49042;DHT22;34859;51.608;11.462;2023-09-07T03:57:42;13.00;99.90
49042;DHT22;34859;51.608;11.462;2023-09-07T04:00:28;12.90;99.90
49042;DHT22;34859;51.608;11.462;2023-09-07T04:03:13;13.00;99.90
49042;DHT22;34859;51.608;11.462;2023-09-07T04:06:00;12.90;99.90
49042;DHT22;34859;51.608;11.462;2023-09-07T04:08:45;12.90;99.90
49042;DHT22;34859;51.608;11.462;2023-09-07T04:11:31;12.90;99.90
49042;DHT22;34859;51.608;11.462;2023-09-07T04:14:17;12.80;99.90
49042;DHT22;34859;51.608;11.462;2023-09-07T04:17:03;12.80;99.90
49042;DHT22;34859;51.608;11.462;2023-09-07T04:19:49;12.80;99.90
49042;DHT22;34859;51.608;11.462;2023-09-07T04:22:34;12.70;99.90
49042;DHT22;34859;51.608;11.462;2023-09-07T04:25:21;12.70;99.90
49042;DHT22;34859;51.608;11.462;2023-09-07T04:28:07;12.80;99.90
49042;DHT22;34859;51.608;11.462;2023-09-07T04:30:52;12.70;99.90
49042;DHT22;34859;51.608;11.462;2023-09-07T04:33:38;12.70;99.90
49042;DHT22;34859;51.608;11.462;2023-09-07T04:36:23;12.80;99.90
49042;DHT22;34859;51.608;11.462;2023-09-07T04:39:10;12.70;99.90
49042;DHT22;34859;51.608;11.462;2023-09-07T04:41:56;12.70;99.90
49042;DHT22;34859;51.608;11.462;2023-09-07T04:44:41;12.70;99.90
49042;DHT22;34859;51.608;11.462;2023-09-07T04:47:27;12.70;99.90
49042;DHT22;34859;51.608;11.462;2023-09-07T04:50:13;12.70;99.90
49042;DHT22;34859;51.608;11.462;2023-09-07T04:52:59;12.70;99.90
49042;DHT22;34859;51.608;11.462;2023-09-07T04:55:44;12.70;99.90
49042;DHT22;34859;51.608;11.462;2023-09-07T04:58:30;12.70;99.90
49042;DHT22;34859;51.608;11.462;2023-09-07T05:01:16;12.70;99.90
49042;DHT22;34859;51.608;11.462;2023-09-07T05:04:01;12.60;99.90
49042;DHT22;34859;51.608;11.462;2023-09-07T05:06:49;12.60;99.90
49042;DHT22;34859;51.608;11.462;2023-09-07T05:09:34;12.70;99.90
49042;DHT22;34859;51.608;11.462;2023-09-07T05:12:20;12.70;99.90
49042;DHT22;34859;51.608;11.462;2023-09-07T05:15:06;12.60;99.90
49042;DHT22;34859;51.608;11.462;2023-09-07T05:17:56;12.60;99.90
49042;DHT22;34859;51.608;11.462;2023-09-07T05:20:41;12.60;99.90
49042;DHT22;34859;51.608;11.462;2023-09-07T05:23:27;12.60;99.90
49042;DHT22;34859;51.608;11.462;2023-09-07T05:26:13;12.70;99.90
49042;DHT22;34859;51.608;11.462;2023-09-07T05:28:59;12.70;99.90
49042;DHT22;34859;51.608;11.462;2023-09-07T05:31:44;12.80;99.90
49042;DHT22;34859;51.608;11.462;2023-09-07T05:34:30;12.80;99.90
49042;DHT22;34859;51.608;11.462;2023-09-07T05:37:16;12.90;99.90
49042;DHT22;34859;51.608;11.462;2023-09-07T05:40:01;13.00;99.90
49042;DHT22;34859;51.608;11.462;2023-09-07T05:42:49;13.00;99.90
49042;DHT22;34859;51.608;11.462;2023-09-07T05:45:44;13.00;99.90
49042;DHT22;34859;51.608;11.462;2023-09-07T05:48:30;13.10;99.90
49042;DHT22;34859;51.608;11.462;2023-09-07T05:51:15;13.10;99.90
49042;DHT22;34859;51.608;11.462;2023-09-07T05:54:01;13.20;99.90
49042;DHT22;34859;51.608;11.462;2023-09-07T05:56:47;13.20;99.90
49042;DHT22;34859;51.608;11.462;2023-09-07T05:59:32;13.30;99.90
49042;DHT22;34859;51.608;11.462;2023-09-07T06:02:18;13.40;99.90
49042;DHT22;34859;51.608;11.462;2023-09-07T06:05:04;13.40;99.90
49042;DHT22;34859;51.608;11.462;2023-09-07T06:07:50;13.50;99.90
49042;DHT22;34859;51.608;11.462;2023-09-07T06:10:36;13.60;99.90
49042;DHT22;34859;51.608;11.462;2023-09-07T06:13:21;13.60;99.90
49042;DHT22;34859;51.608;11.462;2023-09-07T06:16:07;13.70;99.90
49042;DHT22;34859;51.608;11.462;2023-09-07T06:18:53;13.80;99.90
49042;DHT22;34859;51.608;11.462;2023-09-07T06:21:38;13.90;99.90
49042;DHT22;34859;51.608;11.462;2023-09-07T06:24:24;14.00;99.90
49042;DHT22;34859;51.608;11.462;2023-09-07T06:27:10;14.00;99.90
49042;DHT22;34859;51.608;11.462;2023-09-07T06:29:55;14.10;99.90
49042;DHT22;34859;51.608;11.462;2023-09-07T06:32:41;14.20;99.90
49042;DHT22;34859;51.608;11.462;2023-09-07T06:35:27;14.20;99.90
49042;DHT22;34859;51.608;11.462;2023-09-07T06:38:13;14.40;99.90
49042;DHT22;34859;51.608;11.462;2023-09-07T06:40:58;14.50;99.90
49042;DHT22;34859;51.608;11.462;2023-09-07T06:43:44;14.60;99.90
49042;DHT22;34859;51.608;11.462;2023-09-07T06:46:30;14.60;99.90
49042;DHT22;34859;51.608;11.462;2023-09-07T06:49:15;14.80;99.90
49042;DHT22;34859;51.608;11.462;2023-09-07T06:52:01;14.90;99.90
49042;DHT22;34859;51.608;11.462;2023-09-07T06:54:51;15.00;99.90
49042;DHT22;34859;51.608;11.462;2023-09-07T06:57:37;15.10;99.90
49042;DHT22;34859;51.608;11.462;2023-09-07T07:00:23;15.10;99.90
49042;DHT22;34859;51.608;11.462;2023-09-07T07:03:09;15.30;99.90
49042;DHT22;34859;51.608;11.462;2023-09-07T07:05:55;15.40;99.90
49042;DHT22;34859;51.608;11.462;2023-09-07T07:08:41;15.50;99.90
49042;DHT22;34859;51.608;11.462;2023-09-07T07:11:26;15.70;99.90
49042;DHT22;34859;51.608;11.462;2023-09-07T07:14:12;15.80;99.90
49042;DHT22;34859;51.608;11.462;2023-09-07T07:16:58;15.90;99.90
49042;DHT22;34859;51.608;11.462;2023-09-07T07:19:43;16.00;99.90
49042;DHT22;34859;51.608;11.462;2023-09-07T07:22:29;16.20;99.90
49042;DHT22;34859;51.608;11.462;2023-09-07T07:25:15;16.30;99.90
49042;DHT22;34859;51.608;11.462;2023-09-07T07:28:07;16.30;99.90
49042;DHT22;34859;51.608;11.462;2023-09-07T07:30:52;16.50;99.90
49042;DHT22;34859;51.608;11.462;2023-09-07T07:33:39;16.50;99.90
49042;DHT22;34859;51.608;11.462;2023-09-07T07:36:24;16.60;99.90
49042;DHT22;34859;51.608;11.462;2023-09-07T07:39:10;16.80;99.90
49042;DHT22;34859;51.608;11.462;2023-09-07T07:41:56;16.90;99.90
49042;DHT22;34859;51.608;11.462;2023-09-07T07:44:41;17.00;99.90
49042;DHT22;34859;51.608;11.462;2023-09-07T07:47:27;17.10;99.90
49042;DHT22;34859;51.608;11.462;2023-09-07T07:50:14;17.20;99.90
49042;DHT22;34859;51.608;11.462;2023-09-07T07:52:59;17.30;99.90
49042;DHT22;34859;51.608;11.462;2023-09-07T07:55:45;17.40;99.90
49042;DHT22;34859;51.608;11.462;2023-09-07T07:58:31;17.50;99.90
49042;DHT22;34859;51.608;11.462;2023-09-07T08:01:19;17.60;99.90
49042;DHT22;34859;51.608;11.462;2023-09-07T08:04:05;17.70;99.90
49042;DHT22;34859;51.608;11.462;2023-09-07T08:06:52;17.80;99.90
49042;DHT22;34859;51.608;11.462;2023-09-07T08:09:42;18.00;99.90
49042;DHT22;34859;51.608;11.462;2023-09-07T08:12:28;18.00;99.90
49042;DHT22;34859;51.608;11.462;2023-09-07T08:15:14;18.30;99.90
49042;DHT22;34859;51.608;11.462;2023-09-07T08:18:00;18.40;99.90
49042;DHT22;34859;51.608;11.462;2023-09-07T08:20:46;18.60;99.90
49042;DHT22;34859;51.608;11.462;2023-09-07T08:23:31;18.70;99.90
49042;DHT22;34859;51.608;11.462;2023-09-07T08:26:17;18.80;99.90
49042;DHT22;34859;51.608;11.462;2023-09-07T08:29:03;19.10;99.90
49042;DHT22;34859;51.608;11.462;2023-09-07T08:31:51;19.20;99.90
49042;DHT22;34859;51.608;11.462;2023-09-07T08:34:36;19.40;99.90
49042;DHT22;34859;51.608;11.462;2023-09-07T08:37:25;19.50;99.90
49042;DHT22;34859;51.608;11.462;2023-09-07T08:40:12;19.50;99.90
49042;DHT22;34859;51.608;11.462;2023-09-07T08:42:57;19.60;99.90
49042;DHT22;34859;51.608;11.462;2023-09-07T08:45:51;19.70;99.90
49042;DHT22;34859;51.608;11.462;2023-09-07T08:48:39;19.80;99.90
49042;DHT22;34859;51.608;11.462;2023-09-07T08:51:27;19.90;99.90
49042;DHT22;34859;51.608;11.462;2023-09-07T08:54:13;20.10;99.90
49042;DHT22;34859;51.608;11.462;2023-09-07T08:57:01;20.20;99.90
49042;DHT22;34859;51.608;11.462;2023-09-07T08:59:49;20.30;99.90
49042;DHT22;34859;51.608;11.462;2023-09-07T09:02:35;20.50;99.90
49042;DHT22;34859;51.608;11.462;2023-09-07T09:05:23;20.50;99.90
49042;DHT22;34859;51.608;11.462;2023-09-07T09:08:10;20.60;99.90
49042;DHT22;34859;51.608;11.462;2023-09-07T09:11:01;20.80;99.90
49042;DHT22;34859;51.608;11.462;2023-09-07T09:13:51;20.90;99.90
49042;DHT22;34859;51.608;11.462;2023-09-07T09:16:37;21.10;99.90
49042;DHT22;34859;51.608;11.462;2023-09-07T09:19:33;21.20;99.90
49042;DHT22;34859;51.608;11.462;2023-09-07T09:22:19;21.30;99.90
49042;DHT22;34859;51.608;11.462;2023-09-07T09:25:07;21.40;99.90
49042;DHT22;34859;51.608;11.462;2023-09-07T09:27:53;21.50;99.90
49042;DHT22;34859;51.608;11.462;2023-09-07T09:30:39;21.70;99.90
49042;DHT22;34859;51.608;11.462;2023-09-07T09:33:31;21.80;99.90
49042;DHT22;34859;51.608;11.462;2023-09-07T09:36:17;21.90;99.90
49042;DHT22;34859;51.608;11.462;2023-09-07T09:39:03;22.00;99.90
49042;DHT22;34859;51.608;11.462;2023-09-07T09:41:49;22.10;99.90
49042;DHT22;34859;51.608;11.462;2023-09-07T09:44:36;22.30;99.90
49042;DHT22;34859;51.608;11.462;2023-09-07T09:47:23;22.40;99.90
49042;DHT22;34859;51.608;11.462;2023-09-07T09:50:10;22.40;99.90
49042;DHT22;34859;51.608;11.462;2023-09-07T09:52:57;22.50;99.90
49042;DHT22;34859;51.608;11.462;2023-09-07T09:55:44;22.60;99.90
49042;DHT22;34859;51.608;11.462;2023-09-07T09:58:32;22.60;99.90
49042;DHT22;34859;51.608;11.462;2023-09-07T10:01:18;22.70;99.90
49042;DHT22;34859;51.608;11.462;2023-09-07T10:04:05;22.80;99.90
49042;DHT22;34859;51.608;11.462;2023-09-07T10:07:00;22.80;99.90
49042;DHT22;34859;51.608;11.462;2023-09-07T10:09:47;22.80;99.90
49042;DHT22;34859;51.608;11.462;2023-09-07T10:12:43;22.90;99.90
49042;DHT22;34859;51.608;11.462;2023-09-07T10:15:29;23.00;99.90
49042;DHT22;34859;51.608;11.462;2023-09-07T10:18:16;23.10;99.90
49042;DHT22;34859;51.608;11.462;2023-09-07T10:21:03;23.20;99.90
49042;DHT22;34859;51.608;11.462;2023-09-07T10:23:51;23.40;99.90
49042;DHT22;34859;51.608;11.462;2023-09-07T10:26:38;23.40;99.90
49042;DHT22;34859;51.608;11.462;2023-09-07T10:29:24;23.50;99.90
49042;DHT22;34859;51.608;11.462;2023-09-07T10:32:10;23.60;99.90
49042;DHT22;34859;51.608;11.462;2023-09-07T10:34:59;23.70;99.90
49042;DHT22;34859;51.608;11.462;2023-09-07T10:37:45;23.80;99.90
49042;DHT22;34859;51.608;11.462;2023-09-07T10:40:34;23.80;99.90
49042;DHT22;34859;51.608;11.462;2023-09-07T10:43:20;24.00;99.90
49042;DHT22;34859;51.608;11.462;2023-09-07T10:46:06;24.10;99.90
49042;DHT22;34859;51.608;11.462;2023-09-07T10:48:53;24.10;99.90
49042;DHT22;34859;51.608;11.462;2023-09-07T10:51:44;24.20;99.90
49042;DHT22;34859;51.608;11.462;2023-09-07T10:54:30;24.20;99.90
49042;DHT22;34859;51.608;11.462;2023-09-07T10:57:16;24.30;99.90
49042;DHT22;34859;51.608;11.462;2023-09-07T11:00:05;24.40;99.90
49042;DHT22;34859;51.608;11.462;2023-09-07T11:02:56;24.50;99.90
49042;DHT22;34859;51.608;11.462;2023-09-07T11:05:41;24.60;99.90
49042;DHT22;34859;51.608;11.462;2023-09-07T11:08:29;24.60;99.90
49042;DHT22;34859;51.608;11.462;2023-09-07T11:11:16;24.70;99.90
49042;DHT22;34859;51.608;11.462;2023-09-07T11:14:03;24.80;99.90
49042;DHT22;34859;51.608;11.462;2023-09-07T11:16:50;24.80;99.90
49042;DHT22;34859;51.608;11.462;2023-09-07T11:19:35;24.90;99.90
49042;DHT22;34859;51.608;11.462;2023-09-07T11:22:22;25.00;99.90
49042;DHT22;34859;51.608;11.462;2023-09-07T11:25:08;25.00;99.90
49042;DHT22;34859;51.608;11.462;2023-09-07T11:27:54;25.10;99.90
49042;DHT22;34859;51.608;11.462;2023-09-07T11:33:36;25.10;99.90
49042;DHT22;34859;51.608;11.462;2023-09-07T11:36:22;25.20;99.90
49042;DHT22;34859;51.608;11.462;2023-09-07T11:39:10;25.20;99.90
49042;DHT22;34859;51.608;11.462;2023-09-07T11:41:58;25.30;99.90
49042;DHT22;34859;51.608;11.462;2023-09-07T11:44:44;25.30;99.90
49042;DHT22;34859;51.608;11.462;2023-09-07T11:47:29;25.40;99.90
49042;DHT22;34859;51.608;11.462;2023-09-07T11:50:19;25.40;99.90
49042;DHT22;34859;51.608;11.462;2023-09-07T11:53:05;25.40;99.90
49042;DHT22;34859;51.608;11.462;2023-09-07T11:55:51;25.40;99.90
49042;DHT22;34859;51.608;11.462;2023-09-07T11:58:37;25.50;99.90
49042;DHT22;34859;51.608;11.462;2023-09-07T12:01:23;25.60;99.90
49042;DHT22;34859;51.608;11.462;2023-09-07T12:04:09;25.60;99.90
49042;DHT22;34859;51.608;11.462;2023-09-07T12:06:54;25.60;99.90
49042;DHT22;34859;51.608;11.462;2023-09-07T12:09:40;25.60;99.90
49042;DHT22;34859;51.608;11.462;2023-09-07T12:12:26;25.60;99.90
49042;DHT22;34859;51.608;11.462;2023-09-07T12:15:12;25.70;99.90
49042;DHT22;34859;51.608;11.462;2023-09-07T12:17:58;25.70;99.90
49042;DHT22;34859;51.608;11.462;2023-09-07T12:20:43;25.80;99.90
49042;DHT22;34859;51.608;11.462;2023-09-07T12:23:30;25.80;99.90
49042;DHT22;34859;51.608;11.462;2023-09-07T12:26:15;25.90;99.90
49042;DHT22;34859;51.608;11.462;2023-09-07T12:29:06;26.00;99.90
49042;DHT22;34859;51.608;11.462;2023-09-07T12:31:53;26.00;99.90
49042;DHT22;34859;51.608;11.462;2023-09-07T12:34:39;25.90;99.90
49042;DHT22;34859;51.608;11.462;2023-09-07T12:37:24;26.00;99.90
49042;DHT22;34859;51.608;11.462;2023-09-07T12:40:11;26.00;99.90
49042;DHT22;34859;51.608;11.462;2023-09-07T12:42:58;26.00;99.90
49042;DHT22;34859;51.608;11.462;2023-09-07T12:45:43;26.10;99.90
49042;DHT22;34859;51.608;11.462;2023-09-07T12:48:29;26.10;99.90
49042;DHT22;34859;51.608;11.462;2023-09-07T12:51:15;26.00;99.90
49042;DHT22;34859;51.608;11.462;2023-09-07T12:54:01;26.10;99.90
49042;DHT22;34859;51.608;11.462;2023-09-07T12:56:48;26.20;99.90
49042;DHT22;34859;51.608;11.462;2023-09-07T12:59:34;26.20;99.90
49042;DHT22;34859;51.608;11.462;2023-09-07T13:02:19;26.20;99.90
49042;DHT22;34859;51.608;11.462;2023-09-07T13:05:05;26.20;99.90
49042;DHT22;34859;51.608;11.462;2023-09-07T13:07:58;26.30;99.90
49042;DHT22;34859;51.608;11.462;2023-09-07T13:10:44;26.30;99.90
49042;DHT22;34859;51.608;11.462;2023-09-07T13:13:30;26.30;99.90
49042;DHT22;34859;51.608;11.462;2023-09-07T13:16:16;26.40;99.90
49042;DHT22;34859;51.608;11.462;2023-09-07T13:19:02;26.40;99.90
49042;DHT22;34859;51.608;11.462;2023-09-07T13:21:47;26.30;99.90
49042;DHT22;34859;51.608;11.462;2023-09-07T13:24:33;26.30;99.90
49042;DHT22;34859;51.608;11.462;2023-09-07T13:27:19;26.30;99.90
49042;DHT22;34859;51.608;11.462;2023-09-07T13:30:05;26.30;99.90
49042;DHT22;34859;51.608;11.462;2023-09-07T13:32:53;26.30;99.90
49042;DHT22;34859;51.608;11.462;2023-09-07T13:35:39;26.40;99.90
49042;DHT22;34859;51.608;11.462;2023-09-07T13:38:25;26.40;99.90
49042;DHT22;34859;51.608;11.462;2023-09-07T13:41:11;26.40;99.90
49042;DHT22;34859;51.608;11.462;2023-09-07T13:43:56;26.40;99.90
49042;DHT22;34859;51.608;11.462;2023-09-07T13:46:44;26.40;99.90
49042;DHT22;34859;51.608;11.462;2023-09-07T13:49:30;26.40;99.90
49042;DHT22;34859;51.608;11.462;2023-09-07T13:52:16;26.50;99.90
49042;DHT22;34859;51.608;11.462;2023-09-07T13:55:01;26.40;99.90
49042;DHT22;34859;51.608;11.462;2023-09-07T13:57:47;26.40;99.90
49042;DHT22;34859;51.608;11.462;2023-09-07T14:00:33;26.40;99.90
49042;DHT22;34859;51.608;11.462;2023-09-07T14:03:19;26.40;99.90
49042;DHT22;34859;51.608;11.462;2023-09-07T14:06:04;26.40;99.90
49042;DHT22;34859;51.608;11.462;2023-09-07T14:08:50;26.40;99.90
49042;DHT22;34859;51.608;11.462;2023-09-07T14:11:36;26.40;99.90
49042;DHT22;34859;51.608;11.462;2023-09-07T14:14:23;26.40;99.90
49042;DHT22;34859;51.608;11.462;2023-09-07T14:17:09;26.40;99.90
49042;DHT22;34859;51.608;11.462;2023-09-07T14:19:54;26.40;99.90
49042;DHT22;34859;51.608;11.462;2023-09-07T14:22:40;26.50;99.90
49042;DHT22;34859;51.608;11.462;2023-09-07T14:25:26;26.50;99.90
49042;DHT22;34859;51.608;11.462;2023-09-07T14:28:12;26.50;99.90
49042;DHT22;34859;51.608;11.462;2023-09-07T14:30:58;26.40;99.90
49042;DHT22;34859;51.608;11.462;2023-09-07T14:33:48;26.40;99.90
49042;DHT22;34859;51.608;11.462;2023-09-07T14:36:34;26.40;99.90
49042;DHT22;34859;51.608;11.462;2023-09-07T14:39:19;26.40;99.90
49042;DHT22;34859;51.608;11.462;2023-09-07T14:42:09;26.40;99.90
49042;DHT22;34859;51.608;11.462;2023-09-07T14:44:59;26.30;99.90
49042;DHT22;34859;51.608;11.462;2023-09-07T14:47:47;26.30;99.90
49042;DHT22;34859;51.608;11.462;2023-09-07T14:50:32;26.30;99.90
49042;DHT22;34859;51.608;11.462;2023-09-07T14:53:18;26.40;99.90
49042;DHT22;34859;51.608;11.462;2023-09-07T14:56:04;26.40;99.90
49042;DHT22;34859;51.608;11.462;2023-09-07T14:58:49;26.30;99.90
49042;DHT22;34859;51.608;11.462;2023-09-07T15:01:35;26.30;99.90
49042;DHT22;34859;51.608;11.462;2023-09-07T15:04:21;26.30;99.90
49042;DHT22;34859;51.608;11.462;2023-09-07T15:07:06;26.40;99.90
49042;DHT22;34859;51.608;11.462;2023-09-07T15:09:52;26.40;99.90
49042;DHT22;34859;51.608;11.462;2023-09-07T15:12:38;26.40;99.90
49042;DHT22;34859;51.608;11.462;2023-09-07T15:15:24;26.30;99.90
49042;DHT22;34859;51.608;11.462;2023-09-07T15:18:10;26.30;99.90
49042;DHT22;34859;51.608;11.462;2023-09-07T15:20:56;26.30;99.90
49042;DHT22;34859;51.608;11.462;2023-09-07T15:23:42;26.20;99.90
49042;DHT22;34859;51.608;11.462;2023-09-07T15:26:28;26.20;99.90
49042;DHT22;34859;51.608;11.462;2023-09-07T15:29:15;26.10;99.90
49042;DHT22;34859;51.608;11.462;2023-09-07T15:32:00;26.20;99.90
49042;DHT22;34859;51.608;11.462;2023-09-07T15:34:46;26.10;99.90
49042;DHT22;34859;51.608;11.462;2023-09-07T15:37:32;26.00;99.90
49042;DHT22;34859;51.608;11.462;2023-09-07T15:40:18;25.90;99.90
49042;DHT22;34859;51.608;11.462;2023-09-07T15:43:04;26.00;99.90
49042;DHT22;34859;51.608;11.462;2023-09-07T15:45:49;26.00;99.90
49042;DHT22;34859;51.608;11.462;2023-09-07T15:48:35;25.90;99.90
49042;DHT22;34859;51.608;11.462;2023-09-07T15:51:21;25.90;99.90
49042;DHT22;34859;51.608;11.462;2023-09-07T15:54:05;25.90;99.90
49042;DHT22;34859;51.608;11.462;2023-09-07T15:56:51;25.80;99.90
49042;DHT22;34859;51.608;11.462;2023-09-07T15:59:36;25.80;99.90
49042;DHT22;34859;51.608;11.462;2023-09-07T16:02:22;25.70;99.90
49042;DHT22;34859;51.608;11.462;2023-09-07T16:05:08;25.70;99.90
49042;DHT22;34859;51.608;11.462;2023-09-07T16:07:54;25.70;99.90
49042;DHT22;34859;51.608;11.462;2023-09-07T16:10:39;25.70;99.90
49042;DHT22;34859;51.608;11.462;2023-09-07T16:13:27;25.60;99.90
49042;DHT22;34859;51.608;11.462;2023-09-07T16:16:12;25.50;99.90
49042;DHT22;34859;51.608;11.462;2023-09-07T16:18:58;25.50;99.90
49042;DHT22;34859;51.608;11.462;2023-09-07T16:21:43;25.50;99.90
49042;DHT22;34859;51.608;11.462;2023-09-07T16:24:29;25.50;99.90
49042;DHT22;34859;51.608;11.462;2023-09-07T16:27:15;25.40;99.90
49042;DHT22;34859;51.608;11.462;2023-09-07T16:30:00;25.20;99.90
49042;DHT22;34859;51.608;11.462;2023-09-07T16:32:46;25.10;99.90
49042;DHT22;34859;51.608;11.462;2023-09-07T16:35:32;25.10;99.90
49042;DHT22;34859;51.608;11.462;2023-09-07T16:38:19;24.90;99.90
49042;DHT22;34859;51.608;11.462;2023-09-07T16:41:06;24.90;99.90
49042;DHT22;34859;51.608;11.462;2023-09-07T16:43:52;24.90;99.90
49042;DHT22;34859;51.608;11.462;2023-09-07T16:46:38;24.80;99.90
49042;DHT22;34859;51.608;11.462;2023-09-07T16:49:24;24.80;99.90
49042;DHT22;34859;51.608;11.462;2023-09-07T16:52:10;24.60;99.90
49042;DHT22;34859;51.608;11.462;2023-09-07T16:54:56;24.40;99.90
49042;DHT22;34859;51.608;11.462;2023-09-07T16:57:41;24.20;99.90
49042;DHT22;34859;51.608;11.462;2023-09-07T17:00:27;24.00;99.90
49042;DHT22;34859;51.608;11.462;2023-09-07T17:03:13;23.80;99.90
49042;DHT22;34859;51.608;11.462;2023-09-07T17:05:58;23.70;99.90
49042;DHT22;34859;51.608;11.462;2023-09-07T17:08:44;23.40;99.90
49042;DHT22;34859;51.608;11.462;2023-09-07T17:11:30;23.30;99.90
49042;DHT22;34859;51.608;11.462;2023-09-07T17:14:16;23.10;99.90
49042;DHT22;34859;51.608;11.462;2023-09-07T17:17:01;22.90;99.90